createdAt,value
2023-05-20T00:02:12.513Z,13.32
2023-05-20T00:05:01.071Z,13.30
2023-05-20T00:07:50.983Z,13.27
2023-05-20T00:10:39.589Z,13.20
2023-05-20T00:13:28.196Z,13.23
2023-05-20T00:16:16.724Z,13.19
2023-05-20T00:19:05.606Z,13.15
2023-05-20T00:21:54.172Z,13.08
2023-05-20T00:24:44.023Z,13.02
2023-05-20T00:27:32.546Z,12.95
2023-05-20T00:30:21.751Z,12.86
2023-05-20T00:33:10.540Z,12.88
2023-05-20T00:35:59.164Z,12.88
2023-05-20T00:38:47.621Z,12.89
2023-05-20T00:41:37.551Z,12.87
2023-05-20T00:44:26.742Z,12.87
2023-05-20T00:47:15.348Z,12.89
2023-05-20T00:50:04.380Z,12.82
2023-05-20T00:52:55.318Z,12.81
2023-05-20T00:55:43.817Z,12.79
2023-05-20T00:58:33.733Z,12.77
2023-05-20T01:01:22.293Z,12.74
2023-05-20T01:04:10.975Z,12.72
2023-05-20T01:07:01.015Z,12.63
2023-05-20T01:09:49.597Z,12.57
2023-05-20T01:12:40.432Z,12.57
2023-05-20T01:15:30.988Z,12.46
2023-05-20T01:18:20.545Z,12.54
2023-05-20T01:21:12.498Z,12.58
2023-05-20T01:24:04.085Z,12.58
2023-05-20T01:26:52.611Z,12.56
2023-05-20T01:29:42.035Z,12.55
2023-05-20T01:32:34.065Z,12.57
2023-05-20T01:35:23.717Z,12.59
2023-05-20T01:38:12.536Z,12.59
2023-05-20T01:41:04.529Z,12.57
2023-05-20T01:43:53.069Z,12.65
2023-05-20T01:46:41.727Z,12.67
2023-05-20T01:49:30.320Z,12.74
2023-05-20T01:52:18.819Z,12.79
2023-05-20T01:55:07.897Z,12.78
2023-05-20T01:57:57.789Z,12.77
2023-05-20T02:00:46.661Z,12.89
2023-05-20T02:03:35.239Z,12.91
2023-05-20T02:06:23.716Z,12.93
2023-05-20T02:09:12.271Z,12.96
2023-05-20T02:12:00.815Z,12.96
2023-05-20T02:14:51.199Z,12.98
2023-05-20T02:17:40.455Z,12.75
2023-05-20T02:20:29.119Z,12.95
2023-05-20T02:23:17.736Z,12.96
2023-05-20T02:26:06.576Z,12.60
2023-05-20T02:28:55.090Z,13.00
2023-05-20T02:31:44.999Z,13.00
2023-05-20T02:34:33.550Z,13.01
2023-05-20T02:37:22.124Z,13.02
2023-05-20T02:40:12.002Z,13.02
2023-05-20T02:43:01.446Z,13.04
2023-05-20T02:45:50.241Z,13.08
2023-05-20T02:48:40.176Z,13.07
2023-05-20T02:51:28.762Z,13.11
2023-05-20T02:54:17.585Z,13.14
2023-05-20T02:57:06.460Z,13.08
2023-05-20T02:59:55.738Z,13.25
2023-05-20T03:02:44.267Z,13.28
2023-05-20T03:05:37.640Z,13.19
2023-05-20T03:08:26.959Z,13.15
2023-05-20T03:11:16.049Z,13.15
2023-05-20T03:14:04.595Z,13.04
2023-05-20T03:16:55.416Z,13.12
2023-05-20T03:19:43.956Z,12.96
2023-05-20T03:22:33.890Z,13.01
2023-05-20T03:25:23.847Z,12.38
2023-05-20T03:28:12.827Z,13.02
2023-05-20T03:31:02.528Z,12.61
2023-05-20T03:33:51.185Z,12.97
2023-05-20T03:36:40.102Z,12.81
2023-05-20T03:39:29.915Z,12.75
2023-05-20T03:42:18.395Z,12.83
2023-05-20T03:45:07.775Z,12.78
2023-05-20T03:47:56.712Z,12.74
2023-05-20T03:50:45.225Z,12.77
2023-05-20T03:53:33.745Z,12.79
2023-05-20T03:56:23.679Z,12.78
2023-05-20T03:59:12.158Z,12.78
2023-05-20T04:02:00.681Z,12.76
2023-05-20T04:04:52.880Z,12.74
2023-05-20T04:07:41.526Z,12.53
2023-05-20T04:10:32.010Z,12.71
2023-05-20T04:13:21.933Z,12.67
2023-05-20T04:16:10.505Z,12.71
2023-05-20T04:19:01.017Z,12.73
2023-05-20T04:21:49.621Z,12.72
2023-05-20T04:24:38.190Z,12.73
2023-05-20T04:27:27.022Z,12.75
2023-05-20T04:30:18.002Z,12.80
2023-05-20T04:33:06.605Z,12.74
2023-05-20T04:35:58.620Z,12.89
2023-05-20T04:38:48.253Z,12.88
2023-05-20T04:41:37.387Z,12.93
2023-05-20T04:44:26.543Z,12.88
2023-05-20T04:47:16.659Z,12.81
2023-05-20T04:50:06.164Z,12.95
2023-05-20T04:52:55.573Z,13.10
2023-05-20T04:55:44.581Z,13.16
2023-05-20T04:58:33.335Z,13.16
2023-05-20T05:01:21.842Z,13.17
2023-05-20T05:04:11.757Z,13.26
2023-05-20T05:07:00.316Z,13.30
2023-05-20T05:09:48.814Z,13.34
2023-05-20T05:12:37.316Z,13.50
2023-05-20T05:15:25.849Z,13.59
2023-05-20T05:18:18.414Z,13.67
2023-05-20T05:21:08.290Z,13.75
2023-05-20T05:23:58.305Z,13.79
2023-05-20T05:26:47.057Z,13.85
2023-05-20T05:29:35.548Z,13.86
2023-05-20T05:32:24.074Z,13.90
2023-05-20T05:35:12.815Z,13.95
2023-05-20T05:38:03.116Z,13.99
2023-05-20T05:40:51.793Z,14.06
2023-05-20T05:43:40.402Z,14.07
2023-05-20T05:46:28.961Z,14.21
2023-05-20T05:49:17.538Z,14.25
2023-05-20T05:52:06.877Z,14.23
2023-05-20T05:54:56.704Z,14.33
2023-05-20T05:57:45.343Z,14.40
2023-05-20T06:00:33.935Z,14.46
2023-05-20T06:03:22.534Z,14.50
2023-05-20T06:06:11.234Z,14.55
2023-05-20T06:08:59.952Z,14.65
2023-05-20T06:11:49.897Z,14.73
2023-05-20T06:14:38.465Z,14.73
2023-05-20T06:17:27.016Z,14.75
2023-05-20T06:20:15.843Z,14.80
2023-05-20T06:23:04.395Z,14.85
2023-05-20T06:25:53.041Z,14.94
2023-05-20T06:28:42.927Z,15.17
2023-05-20T06:31:31.484Z,15.48
2023-05-20T06:34:20.116Z,15.85
2023-05-20T06:37:08.663Z,16.24
2023-05-20T06:39:57.240Z,16.65
2023-05-20T06:42:45.804Z,16.88
2023-05-20T06:45:35.874Z,16.97
2023-05-20T06:48:24.465Z,16.94
2023-05-20T06:51:12.961Z,16.93
2023-05-20T06:54:01.530Z,16.89
2023-05-20T06:56:50.050Z,17.06
2023-05-20T06:59:38.887Z,17.09
2023-05-20T07:02:28.888Z,17.03
2023-05-20T07:05:17.718Z,17.07
2023-05-20T07:08:06.837Z,17.19
2023-05-20T07:10:56.716Z,17.44
2023-05-20T07:13:45.192Z,17.81
2023-05-20T07:16:35.281Z,17.85
2023-05-20T07:19:25.346Z,17.93
2023-05-20T07:22:13.900Z,18.24
2023-05-20T07:25:02.440Z,18.46
2023-05-20T07:27:51.066Z,18.26
2023-05-20T07:30:39.646Z,18.56
2023-05-20T07:33:29.622Z,18.64
2023-05-20T07:36:19.593Z,18.75
2023-05-20T07:39:12.527Z,18.90
2023-05-20T07:42:03.532Z,18.39
2023-05-20T07:44:52.075Z,17.88
2023-05-20T07:47:40.772Z,17.57
2023-05-20T07:50:29.612Z,17.95
2023-05-20T07:53:19.992Z,18.00
2023-05-20T07:56:08.760Z,18.29
2023-05-20T07:58:59.211Z,18.21
2023-05-20T08:01:47.807Z,18.04
2023-05-20T08:04:36.988Z,18.39
2023-05-20T08:07:25.606Z,18.42
2023-05-20T08:10:15.768Z,18.60
2023-05-20T08:13:04.448Z,18.78
2023-05-20T08:15:54.731Z,18.95
2023-05-20T08:18:43.596Z,19.02
2023-05-20T08:21:32.323Z,19.09
2023-05-20T08:24:20.933Z,19.12
2023-05-20T08:27:10.827Z,19.22
2023-05-20T08:30:00.923Z,19.17
2023-05-20T08:32:49.749Z,18.99
2023-05-20T08:35:39.588Z,18.80
2023-05-20T08:38:28.331Z,19.12
2023-05-20T08:41:16.984Z,19.41
2023-05-20T08:44:07.396Z,19.57
2023-05-20T08:46:56.926Z,19.43
2023-05-20T08:49:45.533Z,19.54
2023-05-20T08:52:35.824Z,19.54
2023-05-20T08:55:27.826Z,19.52
2023-05-20T08:58:17.753Z,19.68
2023-05-20T09:01:09.457Z,19.76
2023-05-20T09:03:58.108Z,19.97
2023-05-20T09:06:47.715Z,19.75
2023-05-20T09:09:36.650Z,20.14
2023-05-20T09:12:25.201Z,19.58
2023-05-20T09:15:13.704Z,19.99
2023-05-20T09:18:04.791Z,20.39
2023-05-20T09:20:53.802Z,20.35
2023-05-20T09:23:48.321Z,20.12
2023-05-20T09:26:37.076Z,19.58
2023-05-20T09:29:25.973Z,19.83
2023-05-20T09:32:14.869Z,20.18
2023-05-20T09:35:06.234Z,20.35
2023-05-20T09:37:56.044Z,19.96
2023-05-20T09:40:45.693Z,19.78
2023-05-20T09:43:34.225Z,19.88
2023-05-20T09:46:22.927Z,20.56
2023-05-20T09:49:12.448Z,20.92
2023-05-20T09:52:03.755Z,20.75
2023-05-20T09:54:56.396Z,20.57
2023-05-20T09:57:45.098Z,20.47
2023-05-20T10:00:34.519Z,20.83
2023-05-20T10:03:24.128Z,21.00
2023-05-20T10:06:26.725Z,20.96
2023-05-20T10:09:27.444Z,20.88
2023-05-20T10:12:23.581Z,20.98
2023-05-20T10:15:17.853Z,21.21
2023-05-20T10:18:14.456Z,21.29
2023-05-20T10:21:03.040Z,21.42
2023-05-20T10:23:52.096Z,21.50
2023-05-20T10:26:42.744Z,21.82
2023-05-20T10:29:31.945Z,21.98
2023-05-20T10:32:27.790Z,21.46
2023-05-20T10:35:22.987Z,20.95
2023-05-20T10:38:12.611Z,21.46
2023-05-20T10:41:09.409Z,21.11
2023-05-20T10:44:03.395Z,21.61
2023-05-20T10:47:21.008Z,21.64
2023-05-20T10:50:27.597Z,21.90
2023-05-20T10:53:25.624Z,22.04
2023-05-20T10:56:22.598Z,21.72
2023-05-20T10:59:12.544Z,21.19
2023-05-20T11:02:01.679Z,21.54
2023-05-20T11:04:50.574Z,21.17
2023-05-20T11:07:39.085Z,21.85
2023-05-20T11:10:27.640Z,22.01
2023-05-20T11:13:16.267Z,22.18
2023-05-20T11:16:06.771Z,22.05
2023-05-20T11:18:55.841Z,22.54
2023-05-20T11:21:45.231Z,22.72
2023-05-20T11:24:33.817Z,22.78
2023-05-20T11:27:22.813Z,22.70
2023-05-20T11:30:12.677Z,22.53
2023-05-20T11:33:03.223Z,22.33
2023-05-20T11:35:53.742Z,22.62
2023-05-20T11:38:42.385Z,22.60
2023-05-20T11:41:30.951Z,22.67
2023-05-20T11:44:21.083Z,22.65
2023-05-20T11:47:09.611Z,22.30
2023-05-20T11:49:59.561Z,22.20
2023-05-20T11:52:48.218Z,22.45
2023-05-20T11:55:46.393Z,22.60
2023-05-20T11:58:35.081Z,22.17
2023-05-20T12:01:23.713Z,22.25
2023-05-20T12:04:14.808Z,22.47
2023-05-20T12:07:09.175Z,22.53
2023-05-20T12:09:57.698Z,22.71
2023-05-20T12:12:46.366Z,22.61
2023-05-20T12:15:34.947Z,22.29
2023-05-20T12:18:23.626Z,22.45
2023-05-20T12:21:12.109Z,22.51
2023-05-20T12:24:01.992Z,22.64
2023-05-20T12:26:50.815Z,22.39
2023-05-20T12:29:39.390Z,22.67
2023-05-20T12:32:27.951Z,22.63
2023-05-20T12:35:16.724Z,22.68
2023-05-20T12:38:05.455Z,22.44
2023-05-20T12:40:55.460Z,22.34
2023-05-20T12:43:43.997Z,22.41
2023-05-20T12:46:32.630Z,22.36
2023-05-20T12:49:21.191Z,22.52
2023-05-20T12:52:18.840Z,22.69
2023-05-20T12:55:13.755Z,22.75
2023-05-20T12:58:03.720Z,22.79
2023-05-20T13:00:52.217Z,22.73
2023-05-20T13:03:41.178Z,22.89
2023-05-20T13:06:29.718Z,22.98
2023-05-20T13:09:18.354Z,22.81
2023-05-20T13:12:07.553Z,22.86
2023-05-20T13:14:57.445Z,22.85
2023-05-20T13:17:46.121Z,22.90
2023-05-20T13:20:35.045Z,22.87
2023-05-20T13:23:23.750Z,23.34
2023-05-20T13:26:12.396Z,23.51
2023-05-20T13:29:00.928Z,23.42
2023-05-20T13:31:50.837Z,23.26
2023-05-20T13:34:39.577Z,23.09
2023-05-20T13:37:28.154Z,23.02
2023-05-20T13:40:17.480Z,23.14
2023-05-20T13:43:06.166Z,23.44
2023-05-20T13:45:54.688Z,23.52
2023-05-20T13:48:44.609Z,23.50
2023-05-20T13:51:33.244Z,23.53
2023-05-20T13:54:22.009Z,23.54
2023-05-20T13:57:10.603Z,23.76
2023-05-20T13:59:59.149Z,23.79
2023-05-20T14:02:47.829Z,23.69
2023-05-20T14:05:37.790Z,23.62
2023-05-20T14:08:26.550Z,23.09
2023-05-20T14:11:15.063Z,23.18
2023-05-20T14:14:03.570Z,23.21
2023-05-20T14:16:52.128Z,23.22
2023-05-20T14:19:40.757Z,23.18
2023-05-20T14:22:30.843Z,23.05
2023-05-20T14:25:19.365Z,23.31
2023-05-20T14:28:07.858Z,23.41
2023-05-20T14:30:56.336Z,23.55
2023-05-20T14:33:44.956Z,23.78
2023-05-20T14:36:33.555Z,23.56
2023-05-20T14:39:23.415Z,23.77
2023-05-20T14:42:12.649Z,23.77
2023-05-20T14:45:01.160Z,23.71
2023-05-20T14:47:49.711Z,23.01
2023-05-20T14:50:38.345Z,23.80
2023-05-20T14:53:27.093Z,23.98
2023-05-20T14:56:17.128Z,24.03
2023-05-20T14:59:05.625Z,23.77
2023-05-20T15:01:54.152Z,23.73
2023-05-20T15:04:45.086Z,23.72
2023-05-20T15:07:33.583Z,23.75
2023-05-20T15:10:22.206Z,23.80
2023-05-20T15:13:12.118Z,23.80
2023-05-20T15:16:00.921Z,23.59
2023-05-20T15:18:49.457Z,23.64
2023-05-20T15:21:37.989Z,23.67
2023-05-20T15:24:26.616Z,23.83
2023-05-20T15:27:15.098Z,23.94
2023-05-20T15:30:05.807Z,23.79
2023-05-20T15:32:54.437Z,23.65
2023-05-20T15:35:43.025Z,23.70
2023-05-20T15:38:31.600Z,23.60
2023-05-20T15:41:21.722Z,22.84
2023-05-20T15:44:10.676Z,23.41
2023-05-20T15:47:00.517Z,23.43
2023-05-20T15:49:49.099Z,23.51
2023-05-20T15:52:37.774Z,23.42
2023-05-20T15:55:26.658Z,23.47
2023-05-20T15:58:15.167Z,23.47
2023-05-20T16:01:03.786Z,23.57
2023-05-20T16:03:56.848Z,23.59
2023-05-20T16:06:46.750Z,23.69
2023-05-20T16:09:35.423Z,23.78
2023-05-20T16:12:24.352Z,23.75
2023-05-20T16:15:13.124Z,23.80
2023-05-20T16:18:01.738Z,23.86
2023-05-20T16:20:51.748Z,23.92
2023-05-20T16:23:40.536Z,23.89
2023-05-20T16:26:31.371Z,23.88
2023-05-20T16:29:19.915Z,23.71
2023-05-20T16:32:08.801Z,23.77
2023-05-20T16:34:58.006Z,24.03
2023-05-20T16:37:50.706Z,23.96
2023-05-20T16:40:39.643Z,23.99
2023-05-20T16:43:28.175Z,24.04
2023-05-20T16:46:16.720Z,24.02
2023-05-20T16:49:05.507Z,23.90
2023-05-20T16:51:54.136Z,23.83
2023-05-20T16:54:44.069Z,23.72
2023-05-20T16:57:32.663Z,23.60
2023-05-20T17:00:21.250Z,23.57
2023-05-20T17:03:09.875Z,23.45
2023-05-20T17:05:58.449Z,23.17
2023-05-20T17:08:47.004Z,23.39
2023-05-20T17:11:36.900Z,23.33
2023-05-20T17:14:25.423Z,23.29
2023-05-20T17:17:14.931Z,23.18
2023-05-20T17:20:05.362Z,23.13
2023-05-20T17:22:53.919Z,23.17
2023-05-20T17:25:42.575Z,23.08
2023-05-20T17:28:32.436Z,22.96
2023-05-20T17:31:21.781Z,22.95
2023-05-20T17:34:10.494Z,22.87
2023-05-20T17:36:59.025Z,22.86
2023-05-20T17:39:47.574Z,22.87
2023-05-20T17:42:36.119Z,22.76
2023-05-20T17:45:26.042Z,22.76
2023-05-20T17:48:14.819Z,22.74
2023-05-20T17:51:03.422Z,22.65
2023-05-20T17:53:51.988Z,22.51
2023-05-20T17:56:40.697Z,22.61
2023-05-20T17:59:29.224Z,22.47
2023-05-20T18:02:19.266Z,22.39
2023-05-20T18:05:09.900Z,22.44
2023-05-20T18:07:58.452Z,22.34
2023-05-20T18:10:47.005Z,22.30
2023-05-20T18:13:35.527Z,22.19
2023-05-20T18:16:24.125Z,22.05
2023-05-20T18:19:15.099Z,21.93
2023-05-20T18:22:03.742Z,21.95
2023-05-20T18:24:52.246Z,21.55
2023-05-20T18:27:41.113Z,21.03
2023-05-20T18:30:29.705Z,21.42
2023-05-20T18:33:18.592Z,21.37
2023-05-20T18:36:08.961Z,21.27
2023-05-20T18:38:57.695Z,21.32
2023-05-20T18:41:47.492Z,21.18
2023-05-20T18:44:36.164Z,21.10
2023-05-20T18:47:24.761Z,21.08
2023-05-20T18:50:13.328Z,20.98
2023-05-20T18:53:03.219Z,20.93
2023-05-20T18:55:52.506Z,20.98
2023-05-20T18:58:41.070Z,20.91
2023-05-20T19:01:29.846Z,20.84
2023-05-20T19:04:18.392Z,20.74
2023-05-20T19:07:07.198Z,20.67
2023-05-20T19:09:57.109Z,20.68
2023-05-20T19:12:45.681Z,20.69
2023-05-20T19:15:34.392Z,20.59
2023-05-20T19:18:23.134Z,20.57
2023-05-20T19:21:11.662Z,20.48
2023-05-20T19:24:00.208Z,20.52
2023-05-20T19:26:50.080Z,20.54
2023-05-20T19:29:38.676Z,20.42
2023-05-20T19:32:27.248Z,20.37
2023-05-20T19:35:18.091Z,20.32
2023-05-20T19:38:06.849Z,20.28
2023-05-20T19:40:55.422Z,20.17
2023-05-20T19:43:45.552Z,20.05
2023-05-20T19:46:34.398Z,20.18
2023-05-20T19:49:24.733Z,20.07
2023-05-20T19:52:13.323Z,19.99
2023-05-20T19:55:02.050Z,19.84
2023-05-20T19:57:53.366Z,19.94
2023-05-20T20:00:43.257Z,19.95
2023-05-20T20:03:33.984Z,19.81
2023-05-20T20:06:22.583Z,19.68
2023-05-20T20:09:11.373Z,19.64
2023-05-20T20:11:59.902Z,19.69
2023-05-20T20:14:48.494Z,19.60
2023-05-20T20:17:45.921Z,19.57
2023-05-20T20:20:39.714Z,19.55
2023-05-20T20:23:28.444Z,19.41
2023-05-20T20:26:16.983Z,19.32
2023-05-20T20:29:05.599Z,19.39
2023-05-20T20:31:55.536Z,19.25
2023-05-20T20:34:45.842Z,19.19
2023-05-20T20:37:35.485Z,19.02
2023-05-20T20:40:25.547Z,19.10
2023-05-20T20:43:20.613Z,19.11
2023-05-20T20:46:11.349Z,19.05
2023-05-20T20:48:59.920Z,19.09
2023-05-20T20:51:50.982Z,19.03
2023-05-20T20:54:42.703Z,18.94
2023-05-20T20:57:31.996Z,18.92
2023-05-20T21:00:23.299Z,18.90
2023-05-20T21:03:12.008Z,18.84
2023-05-20T21:06:01.373Z,18.82
2023-05-20T21:08:53.131Z,18.78
2023-05-20T21:11:43.044Z,18.72
2023-05-20T21:14:31.587Z,18.66
2023-05-20T21:17:20.140Z,18.66
2023-05-20T21:20:09.725Z,18.63
2023-05-20T21:22:58.257Z,18.58
2023-05-20T21:25:48.404Z,18.32
2023-05-20T21:28:36.925Z,18.53
2023-05-20T21:31:25.524Z,18.49
2023-05-20T21:34:14.154Z,18.43
2023-05-20T21:37:02.685Z,18.42
2023-05-20T21:39:51.282Z,18.18
2023-05-20T21:42:41.189Z,18.25
2023-05-20T21:45:29.766Z,18.23
2023-05-20T21:48:18.292Z,18.14
2023-05-20T21:51:06.950Z,18.11
2023-05-20T21:53:55.475Z,18.04
2023-05-20T21:56:44.110Z,18.04
2023-05-20T21:59:33.991Z,17.95
2023-05-20T22:02:22.926Z,17.95
2023-05-20T22:05:12.829Z,17.92
2023-05-20T22:08:01.921Z,17.89
2023-05-20T22:10:50.555Z,17.73
2023-05-20T22:13:41.583Z,17.70
2023-05-20T22:16:31.544Z,17.61
2023-05-20T22:19:21.732Z,17.59
2023-05-20T22:22:10.650Z,17.55
2023-05-20T22:24:59.271Z,17.44
2023-05-20T22:27:48.218Z,17.45
2023-05-20T22:30:38.283Z,17.39
2023-05-20T22:33:28.222Z,17.31
2023-05-20T22:36:16.827Z,17.29
2023-05-20T22:39:06.926Z,17.28
2023-05-20T22:41:55.553Z,17.27
2023-05-20T22:44:44.058Z,17.22
2023-05-20T22:47:32.633Z,17.24
2023-05-20T22:50:23.929Z,17.21
2023-05-20T22:53:12.879Z,17.18
2023-05-20T22:56:01.456Z,17.18
2023-05-20T22:58:49.962Z,17.17
2023-05-20T23:01:38.892Z,17.08
2023-05-20T23:04:27.536Z,17.02
2023-05-20T23:07:19.280Z,17.02
2023-05-20T23:10:08.603Z,17.03
2023-05-20T23:12:57.225Z,17.02
2023-05-20T23:15:48.080Z,16.90
2023-05-20T23:18:36.658Z,16.87
2023-05-20T23:21:25.392Z,16.97
2023-05-20T23:24:16.931Z,16.95
2023-05-20T23:27:06.188Z,16.92
2023-05-20T23:29:54.890Z,16.89
2023-05-20T23:32:43.596Z,16.92
2023-05-20T23:35:32.177Z,16.87
2023-05-20T23:38:21.074Z,16.87
2023-05-20T23:41:10.996Z,16.83
2023-05-20T23:43:59.578Z,16.81
2023-05-20T23:46:49.418Z,16.77
2023-05-20T23:49:37.975Z,16.73
2023-05-20T23:52:26.939Z,16.70
2023-05-20T23:55:15.706Z,16.70
2023-05-20T23:58:05.631Z,16.66
